sensor_id;sensor_type;location;lat;lon;timestamp;P1;durP1;ratioP1;P2;durP2;ratioP2
78055;SDS011;67666;55.862;49.094;2023-03-01T00:01:21;1.00;;;0.80;;
78055;SDS011;67666;55.862;49.094;2023-03-01T00:03:50;1.00;;;0.60;;
78055;SDS011;67666;55.862;49.094;2023-03-01T00:06:17;1.00;;;0.60;;
78055;SDS011;67666;55.862;49.094;2023-03-01T00:08:44;1.48;;;0.98;;
78055;SDS011;67666;55.862;49.094;2023-03-01T00:11:18;1.00;;;0.60;;
78055;SDS011;67666;55.862;49.094;2023-03-01T00:13:52;1.23;;;0.75;;
78055;SDS011;67666;55.862;49.094;2023-03-01T00:16:25;1.40;;;0.73;;
78055;SDS011;67666;55.862;49.094;2023-03-01T00:18:54;1.20;;;0.80;;
78055;SDS011;67666;55.862;49.094;2023-03-01T00:21:21;1.48;;;0.52;;
78055;SDS011;67666;55.862;49.094;2023-03-01T00:23:49;0.70;;;0.50;;
78055;SDS011;67666;55.862;49.094;2023-03-01T00:26:16;1.30;;;0.63;;
78055;SDS011;67666;55.862;49.094;2023-03-01T00:28:44;1.60;;;0.70;;
78055;SDS011;67666;55.862;49.094;2023-03-01T00:31:16;1.40;;;0.90;;
78055;SDS011;67666;55.862;49.094;2023-03-01T00:33:44;2.08;;;0.90;;
78055;SDS011;67666;55.862;49.094;2023-03-01T00:36:12;1.40;;;0.90;;
78055;SDS011;67666;55.862;49.094;2023-03-01T00:38:41;1.60;;;1.08;;
78055;SDS011;67666;55.862;49.094;2023-03-01T00:41:10;1.42;;;0.95;;
78055;SDS011;67666;55.862;49.094;2023-03-01T00:43:38;1.05;;;0.50;;
78055;SDS011;67666;55.862;49.094;2023-03-01T00:46:05;0.95;;;0.60;;
78055;SDS011;67666;55.862;49.094;2023-03-01T00:48:34;1.42;;;0.80;;
78055;SDS011;67666;55.862;49.094;2023-03-01T00:51:05;0.77;;;0.52;;
78055;SDS011;67666;55.862;49.094;2023-03-01T00:53:32;1.10;;;0.65;;
78055;SDS011;67666;55.862;49.094;2023-03-01T00:55:59;1.52;;;0.60;;
78055;SDS011;67666;55.862;49.094;2023-03-01T01:00:51;1.13;;;0.57;;
78055;SDS011;67666;55.862;49.094;2023-03-01T01:03:21;1.00;;;0.60;;
78055;SDS011;67666;55.862;49.094;2023-03-01T01:05:53;1.05;;;0.60;;
78055;SDS011;67666;55.862;49.094;2023-03-01T01:08:20;1.73;;;0.80;;
78055;SDS011;67666;55.862;49.094;2023-03-01T01:10:47;1.55;;;0.77;;
78055;SDS011;67666;55.862;49.094;2023-03-01T01:13:15;1.30;;;0.90;;
78055;SDS011;67666;55.862;49.094;2023-03-01T01:15:42;1.23;;;0.70;;
78055;SDS011;67666;55.862;49.094;2023-03-01T01:18:08;1.63;;;0.77;;
78055;SDS011;67666;55.862;49.094;2023-03-01T01:20:34;1.17;;;0.65;;
78055;SDS011;67666;55.862;49.094;2023-03-01T01:23:02;1.63;;;1.15;;
78055;SDS011;67666;55.862;49.094;2023-03-01T01:25:33;2.35;;;0.80;;
78055;SDS011;67666;55.862;49.094;2023-03-01T01:28:00;1.50;;;0.80;;
78055;SDS011;67666;55.862;49.094;2023-03-01T01:30:26;1.50;;;0.98;;
78055;SDS011;67666;55.862;49.094;2023-03-01T01:32:53;2.38;;;0.98;;
78055;SDS011;67666;55.862;49.094;2023-03-01T01:35:19;1.88;;;0.98;;
78055;SDS011;67666;55.862;49.094;2023-03-01T01:37:45;1.40;;;0.77;;
78055;SDS011;67666;55.862;49.094;2023-03-01T01:40:12;1.50;;;0.80;;
78055;SDS011;67666;55.862;49.094;2023-03-01T01:42:38;1.42;;;0.77;;
78055;SDS011;67666;55.862;49.094;2023-03-01T01:47:52;1.58;;;0.70;;
78055;SDS011;67666;55.862;49.094;2023-03-01T01:50:22;1.48;;;0.50;;
78055;SDS011;67666;55.862;49.094;2023-03-01T01:52:48;1.20;;;0.70;;
78055;SDS011;67666;55.862;49.094;2023-03-01T01:55:23;1.73;;;0.80;;
78055;SDS011;67666;55.862;49.094;2023-03-01T01:57:54;1.00;;;0.60;;
78055;SDS011;67666;55.862;49.094;2023-03-01T02:00:27;1.13;;;0.70;;
78055;SDS011;67666;55.862;49.094;2023-03-01T02:02:56;1.10;;;0.80;;
78055;SDS011;67666;55.862;49.094;2023-03-01T02:05:50;1.05;;;0.65;;
78055;SDS011;67666;55.862;49.094;2023-03-01T02:08:40;1.92;;;0.85;;
78055;SDS011;67666;55.862;49.094;2023-03-01T02:11:08;1.10;;;0.63;;
78055;SDS011;67666;55.862;49.094;2023-03-01T02:13:36;1.15;;;0.63;;
78055;SDS011;67666;55.862;49.094;2023-03-01T02:16:09;1.42;;;0.77;;
78055;SDS011;67666;55.862;49.094;2023-03-01T02:18:40;3.20;;;0.88;;
78055;SDS011;67666;55.862;49.094;2023-03-01T02:23:53;1.00;;;0.60;;
78055;SDS011;67666;55.862;49.094;2023-03-01T02:26:35;1.02;;;0.55;;
78055;SDS011;67666;55.862;49.094;2023-03-01T02:29:08;1.35;;;0.60;;
78055;SDS011;67666;55.862;49.094;2023-03-01T02:31:34;1.50;;;0.70;;
78055;SDS011;67666;55.862;49.094;2023-03-01T02:34:14;1.00;;;0.55;;
78055;SDS011;67666;55.862;49.094;2023-03-01T02:36:47;0.90;;;0.50;;
78055;SDS011;67666;55.862;49.094;2023-03-01T02:39:26;1.05;;;0.57;;
78055;SDS011;67666;55.862;49.094;2023-03-01T02:41:58;2.25;;;0.90;;
78055;SDS011;67666;55.862;49.094;2023-03-01T02:44:26;1.30;;;0.60;;
78055;SDS011;67666;55.862;49.094;2023-03-01T02:46:53;1.17;;;0.73;;
78055;SDS011;67666;55.862;49.094;2023-03-01T02:49:26;1.60;;;0.70;;
78055;SDS011;67666;55.862;49.094;2023-03-01T02:57:24;0.68;;;0.40;;
78055;SDS011;67666;55.862;49.094;2023-03-01T02:59:54;1.10;;;0.63;;
78055;SDS011;67666;55.862;49.094;2023-03-01T03:02:23;1.20;;;0.60;;
78055;SDS011;67666;55.862;49.094;2023-03-01T03:05:30;0.90;;;0.65;;
78055;SDS011;67666;55.862;49.094;2023-03-01T03:07:58;1.77;;;0.65;;
78055;SDS011;67666;55.862;49.094;2023-03-01T03:10:27;1.50;;;1.00;;
78055;SDS011;67666;55.862;49.094;2023-03-01T03:13:01;0.70;;;0.50;;
78055;SDS011;67666;55.862;49.094;2023-03-01T03:15:31;1.00;;;0.70;;
78055;SDS011;67666;55.862;49.094;2023-03-01T03:18:02;2.33;;;1.23;;
78055;SDS011;67666;55.862;49.094;2023-03-01T03:20:30;1.50;;;0.70;;
78055;SDS011;67666;55.862;49.094;2023-03-01T03:22:57;0.95;;;0.50;;
78055;SDS011;67666;55.862;49.094;2023-03-01T03:25:24;1.00;;;0.57;;
78055;SDS011;67666;55.862;49.094;2023-03-01T03:27:52;1.10;;;0.60;;
78055;SDS011;67666;55.862;49.094;2023-03-01T03:30:27;0.80;;;0.60;;
78055;SDS011;67666;55.862;49.094;2023-03-01T03:32:55;1.10;;;0.50;;
78055;SDS011;67666;55.862;49.094;2023-03-01T03:35:24;1.00;;;0.60;;
78055;SDS011;67666;55.862;49.094;2023-03-01T03:37:56;1.20;;;0.60;;
78055;SDS011;67666;55.862;49.094;2023-03-01T03:40:33;1.30;;;0.60;;
78055;SDS011;67666;55.862;49.094;2023-03-01T03:43:04;1.58;;;0.70;;
78055;SDS011;67666;55.862;49.094;2023-03-01T03:45:39;1.55;;;0.80;;
78055;SDS011;67666;55.862;49.094;2023-03-01T03:48:08;2.72;;;1.13;;
78055;SDS011;67666;55.862;49.094;2023-03-01T03:50:38;2.60;;;1.33;;
78055;SDS011;67666;55.862;49.094;2023-03-01T03:53:07;1.73;;;1.20;;
78055;SDS011;67666;55.862;49.094;2023-03-01T03:55:35;3.50;;;1.50;;
78055;SDS011;67666;55.862;49.094;2023-03-01T03:58:05;1.55;;;1.13;;
78055;SDS011;67666;55.862;49.094;2023-03-01T04:00:44;2.15;;;1.23;;
78055;SDS011;67666;55.862;49.094;2023-03-01T04:03:15;1.70;;;0.98;;
78055;SDS011;67666;55.862;49.094;2023-03-01T04:05:42;3.00;;;1.30;;
78055;SDS011;67666;55.862;49.094;2023-03-01T04:08:08;2.15;;;0.80;;
78055;SDS011;67666;55.862;49.094;2023-03-01T04:13:04;1.80;;;0.73;;
78055;SDS011;67666;55.862;49.094;2023-03-01T04:15:32;1.30;;;0.85;;
78055;SDS011;67666;55.862;49.094;2023-03-01T04:17:59;1.77;;;1.13;;
78055;SDS011;67666;55.862;49.094;2023-03-01T04:25:25;1.33;;;0.60;;
78055;SDS011;67666;55.862;49.094;2023-03-01T04:27:52;1.83;;;1.10;;
78055;SDS011;67666;55.862;49.094;2023-03-01T04:30:18;2.60;;;1.02;;
78055;SDS011;67666;55.862;49.094;2023-03-01T04:32:45;1.90;;;0.70;;
78055;SDS011;67666;55.862;49.094;2023-03-01T04:35:11;2.05;;;0.70;;
78055;SDS011;67666;55.862;49.094;2023-03-01T04:37:37;1.30;;;0.80;;
78055;SDS011;67666;55.862;49.094;2023-03-01T04:40:04;1.23;;;0.70;;
78055;SDS011;67666;55.862;49.094;2023-03-01T04:42:38;1.27;;;0.60;;
78055;SDS011;67666;55.862;49.094;2023-03-01T04:45:11;1.40;;;0.60;;
78055;SDS011;67666;55.862;49.094;2023-03-01T04:47:42;2.20;;;0.68;;
78055;SDS011;67666;55.862;49.094;2023-03-01T04:50:13;0.93;;;0.50;;
78055;SDS011;67666;55.862;49.094;2023-03-01T04:52:42;1.15;;;0.55;;
78055;SDS011;67666;55.862;49.094;2023-03-01T04:55:10;1.55;;;0.80;;
78055;SDS011;67666;55.862;49.094;2023-03-01T04:57:36;2.25;;;0.75;;
78055;SDS011;67666;55.862;49.094;2023-03-01T05:00:04;1.42;;;0.60;;
78055;SDS011;67666;55.862;49.094;2023-03-01T05:02:49;2.03;;;0.80;;
78055;SDS011;67666;55.862;49.094;2023-03-01T05:05:21;2.40;;;1.00;;
78055;SDS011;67666;55.862;49.094;2023-03-01T05:08:06;3.40;;;1.45;;
78055;SDS011;67666;55.862;49.094;2023-03-01T05:10:35;1.88;;;0.82;;
78055;SDS011;67666;55.862;49.094;2023-03-01T05:13:02;6.15;;;1.42;;
78055;SDS011;67666;55.862;49.094;2023-03-01T05:15:30;4.50;;;1.40;;
78055;SDS011;67666;55.862;49.094;2023-03-01T05:17:57;3.33;;;0.73;;
78055;SDS011;67666;55.862;49.094;2023-03-01T05:20:26;2.95;;;1.25;;
78055;SDS011;67666;55.862;49.094;2023-03-01T05:22:58;6.30;;;1.30;;
78055;SDS011;67666;55.862;49.094;2023-03-01T05:25:25;3.38;;;0.98;;
78055;SDS011;67666;55.862;49.094;2023-03-01T05:30:18;4.53;;;1.00;;
78055;SDS011;67666;55.862;49.094;2023-03-01T05:32:45;2.92;;;1.10;;
78055;SDS011;67666;55.862;49.094;2023-03-01T05:35:14;3.03;;;1.00;;
78055;SDS011;67666;55.862;49.094;2023-03-01T05:37:42;2.15;;;1.23;;
78055;SDS011;67666;55.862;49.094;2023-03-01T05:40:14;2.03;;;0.80;;
78055;SDS011;67666;55.862;49.094;2023-03-01T05:43:18;4.57;;;0.98;;
78055;SDS011;67666;55.862;49.094;2023-03-01T05:45:45;1.67;;;0.88;;
78055;SDS011;67666;55.862;49.094;2023-03-01T05:48:11;2.00;;;0.90;;
78055;SDS011;67666;55.862;49.094;2023-03-01T05:50:40;2.15;;;0.57;;
78055;SDS011;67666;55.862;49.094;2023-03-01T05:53:18;2.65;;;0.75;;
78055;SDS011;67666;55.862;49.094;2023-03-01T05:55:48;3.33;;;0.63;;
78055;SDS011;67666;55.862;49.094;2023-03-01T05:58:16;1.08;;;0.63;;
78055;SDS011;67666;55.862;49.094;2023-03-01T06:00:47;1.58;;;0.50;;
78055;SDS011;67666;55.862;49.094;2023-03-01T06:03:14;1.38;;;0.60;;
78055;SDS011;67666;55.862;49.094;2023-03-01T06:05:42;1.40;;;0.55;;
78055;SDS011;67666;55.862;49.094;2023-03-01T06:08:10;1.05;;;0.43;;
78055;SDS011;67666;55.862;49.094;2023-03-01T06:10:37;1.52;;;0.30;;
78055;SDS011;67666;55.862;49.094;2023-03-01T06:13:03;0.57;;;0.32;;
78055;SDS011;67666;55.862;49.094;2023-03-01T06:15:29;2.75;;;0.57;;
78055;SDS011;67666;55.862;49.094;2023-03-01T06:17:56;2.53;;;0.60;;
78055;SDS011;67666;55.862;49.094;2023-03-01T06:22:50;0.93;;;0.32;;
78055;SDS011;67666;55.862;49.094;2023-03-01T06:25:19;1.00;;;0.50;;
78055;SDS011;67666;55.862;49.094;2023-03-01T06:27:47;1.67;;;0.57;;
78055;SDS011;67666;55.862;49.094;2023-03-01T06:30:15;1.35;;;0.50;;
78055;SDS011;67666;55.862;49.094;2023-03-01T06:32:43;3.03;;;0.47;;
78055;SDS011;67666;55.862;49.094;2023-03-01T06:35:13;1.00;;;0.45;;
78055;SDS011;67666;55.862;49.094;2023-03-01T06:37:43;1.35;;;0.47;;
78055;SDS011;67666;55.862;49.094;2023-03-01T06:40:10;1.63;;;0.50;;
78055;SDS011;67666;55.862;49.094;2023-03-01T06:45:04;2.20;;;0.45;;
78055;SDS011;67666;55.862;49.094;2023-03-01T06:47:32;1.00;;;0.43;;
78055;SDS011;67666;55.862;49.094;2023-03-01T06:50:00;1.95;;;0.55;;
78055;SDS011;67666;55.862;49.094;2023-03-01T06:52:27;1.45;;;0.70;;
78055;SDS011;67666;55.862;49.094;2023-03-01T06:54:53;1.05;;;0.20;;
78055;SDS011;67666;55.862;49.094;2023-03-01T06:57:19;1.55;;;0.50;;
78055;SDS011;67666;55.862;49.094;2023-03-01T06:59:46;0.80;;;0.38;;
78055;SDS011;67666;55.862;49.094;2023-03-01T07:02:13;1.65;;;0.50;;
78055;SDS011;67666;55.862;49.094;2023-03-01T07:04:41;1.08;;;0.50;;
78055;SDS011;67666;55.862;49.094;2023-03-01T07:07:07;2.55;;;0.65;;
78055;SDS011;67666;55.862;49.094;2023-03-01T07:12:00;0.85;;;0.30;;
78055;SDS011;67666;55.862;49.094;2023-03-01T07:14:27;1.83;;;0.57;;
78055;SDS011;67666;55.862;49.094;2023-03-01T07:16:53;1.63;;;0.32;;
78055;SDS011;67666;55.862;49.094;2023-03-01T07:19:21;1.70;;;0.40;;
78055;SDS011;67666;55.862;49.094;2023-03-01T07:21:47;1.50;;;0.28;;
78055;SDS011;67666;55.862;49.094;2023-03-01T07:24:14;1.85;;;0.40;;
78055;SDS011;67666;55.862;49.094;2023-03-01T07:26:41;2.65;;;0.60;;
78055;SDS011;67666;55.862;49.094;2023-03-01T07:29:07;1.92;;;0.50;;
78055;SDS011;67666;55.862;49.094;2023-03-01T07:31:35;1.48;;;0.47;;
78055;SDS011;67666;55.862;49.094;2023-03-01T07:36:28;1.10;;;0.40;;
78055;SDS011;67666;55.862;49.094;2023-03-01T07:38:54;0.95;;;0.38;;
78055;SDS011;67666;55.862;49.094;2023-03-01T07:41:21;1.15;;;0.45;;
78055;SDS011;67666;55.862;49.094;2023-03-01T07:43:47;2.72;;;0.75;;
78055;SDS011;67666;55.862;49.094;2023-03-01T07:46:14;0.77;;;0.50;;
78055;SDS011;67666;55.862;49.094;2023-03-01T07:51:06;1.92;;;0.52;;
78055;SDS011;67666;55.862;49.094;2023-03-01T07:53:33;1.23;;;0.40;;
78055;SDS011;67666;55.862;49.094;2023-03-01T07:56:00;1.45;;;0.40;;
78055;SDS011;67666;55.862;49.094;2023-03-01T07:58:37;1.42;;;0.40;;
78055;SDS011;67666;55.862;49.094;2023-03-01T08:01:06;2.15;;;0.55;;
78055;SDS011;67666;55.862;49.094;2023-03-01T08:03:34;1.70;;;0.30;;
78055;SDS011;67666;55.862;49.094;2023-03-01T08:06:04;1.05;;;0.40;;
78055;SDS011;67666;55.862;49.094;2023-03-01T08:08:32;1.42;;;0.50;;
78055;SDS011;67666;55.862;49.094;2023-03-01T08:11:00;2.53;;;0.63;;
78055;SDS011;67666;55.862;49.094;2023-03-01T08:13:28;1.30;;;0.30;;
78055;SDS011;67666;55.862;49.094;2023-03-01T08:15:59;1.27;;;0.47;;
78055;SDS011;67666;55.862;49.094;2023-03-01T08:18:27;1.00;;;0.40;;
78055;SDS011;67666;55.862;49.094;2023-03-01T08:20:54;2.45;;;0.40;;
78055;SDS011;67666;55.862;49.094;2023-03-01T08:23:20;1.45;;;0.43;;
78055;SDS011;67666;55.862;49.094;2023-03-01T08:25:46;2.28;;;0.50;;
78055;SDS011;67666;55.862;49.094;2023-03-01T08:28:12;0.88;;;0.40;;
78055;SDS011;67666;55.862;49.094;2023-03-01T08:30:38;0.73;;;0.32;;
78055;SDS011;67666;55.862;49.094;2023-03-01T08:33:05;1.45;;;0.40;;
78055;SDS011;67666;55.862;49.094;2023-03-01T08:35:31;1.33;;;0.30;;
78055;SDS011;67666;55.862;49.094;2023-03-01T08:37:57;0.80;;;0.40;;
78055;SDS011;67666;55.862;49.094;2023-03-01T08:40:23;1.85;;;0.40;;
78055;SDS011;67666;55.862;49.094;2023-03-01T08:42:49;0.63;;;0.22;;
78055;SDS011;67666;55.862;49.094;2023-03-01T08:45:16;1.20;;;0.40;;
78055;SDS011;67666;55.862;49.094;2023-03-01T08:47:44;1.42;;;0.30;;
78055;SDS011;67666;55.862;49.094;2023-03-01T08:50:11;1.05;;;0.30;;
78055;SDS011;67666;55.862;49.094;2023-03-01T08:52:37;1.50;;;0.47;;
78055;SDS011;67666;55.862;49.094;2023-03-01T08:55:03;1.42;;;0.30;;
78055;SDS011;67666;55.862;49.094;2023-03-01T08:59:56;2.17;;;0.47;;
78055;SDS011;67666;55.862;49.094;2023-03-01T09:02:22;1.52;;;0.20;;
78055;SDS011;67666;55.862;49.094;2023-03-01T09:04:48;1.23;;;0.43;;
78055;SDS011;67666;55.862;49.094;2023-03-01T09:07:14;3.75;;;0.40;;
78055;SDS011;67666;55.862;49.094;2023-03-01T09:09:41;1.13;;;0.40;;
78055;SDS011;67666;55.862;49.094;2023-03-01T09:12:07;0.85;;;0.30;;
78055;SDS011;67666;55.862;49.094;2023-03-01T09:17:04;0.90;;;0.50;;
78055;SDS011;67666;55.862;49.094;2023-03-01T09:19:30;1.77;;;0.30;;
78055;SDS011;67666;55.862;49.094;2023-03-01T09:21:56;0.82;;;0.30;;
78055;SDS011;67666;55.862;49.094;2023-03-01T09:24:24;1.30;;;0.30;;
78055;SDS011;67666;55.862;49.094;2023-03-01T09:26:52;1.05;;;0.40;;
78055;SDS011;67666;55.862;49.094;2023-03-01T09:29:19;1.67;;;0.40;;
78055;SDS011;67666;55.862;49.094;2023-03-01T09:31:45;0.98;;;0.13;;
78055;SDS011;67666;55.862;49.094;2023-03-01T09:34:12;0.63;;;0.10;;
78055;SDS011;67666;55.862;49.094;2023-03-01T09:36:41;0.93;;;0.38;;
78055;SDS011;67666;55.862;49.094;2023-03-01T09:39:07;1.23;;;0.30;;
78055;SDS011;67666;55.862;49.094;2023-03-01T09:46:50;2.03;;;0.30;;
78055;SDS011;67666;55.862;49.094;2023-03-01T09:49:24;0.73;;;0.20;;
78055;SDS011;67666;55.862;49.094;2023-03-01T09:51:56;1.17;;;0.30;;
78055;SDS011;67666;55.862;49.094;2023-03-01T09:54:23;1.67;;;0.30;;
78055;SDS011;67666;55.862;49.094;2023-03-01T09:59:30;1.10;;;0.30;;
78055;SDS011;67666;55.862;49.094;2023-03-01T10:04:50;2.33;;;0.43;;
78055;SDS011;67666;55.862;49.094;2023-03-01T10:10:05;0.95;;;0.38;;
78055;SDS011;67666;55.862;49.094;2023-03-01T10:12:37;1.05;;;0.40;;
78055;SDS011;67666;55.862;49.094;2023-03-01T10:15:15;3.47;;;0.82;;
78055;SDS011;67666;55.862;49.094;2023-03-01T10:20:26;1.73;;;0.60;;
78055;SDS011;67666;55.862;49.094;2023-03-01T10:22:59;1.52;;;0.57;;
78055;SDS011;67666;55.862;49.094;2023-03-01T10:30:43;1.35;;;0.47;;
78055;SDS011;67666;55.862;49.094;2023-03-01T10:33:13;2.10;;;0.60;;
78055;SDS011;67666;55.862;49.094;2023-03-01T10:35:48;1.85;;;0.50;;
78055;SDS011;67666;55.862;49.094;2023-03-01T10:38:15;4.15;;;1.00;;
78055;SDS011;67666;55.862;49.094;2023-03-01T10:43:43;2.65;;;0.88;;
78055;SDS011;67666;55.862;49.094;2023-03-01T10:46:27;2.17;;;0.60;;
78055;SDS011;67666;55.862;49.094;2023-03-01T10:51:48;1.60;;;0.60;;
78055;SDS011;67666;55.862;49.094;2023-03-01T10:54:16;2.85;;;0.70;;
78055;SDS011;67666;55.862;49.094;2023-03-01T10:56:47;1.30;;;0.40;;
78055;SDS011;67666;55.862;49.094;2023-03-01T10:59:34;2.08;;;0.60;;
78055;SDS011;67666;55.862;49.094;2023-03-01T11:05:00;2.13;;;0.57;;
78055;SDS011;67666;55.862;49.094;2023-03-01T11:07:48;2.38;;;0.70;;
78055;SDS011;67666;55.862;49.094;2023-03-01T11:10:23;2.80;;;0.90;;
78055;SDS011;67666;55.862;49.094;2023-03-01T11:16:12;1.45;;;0.55;;
78055;SDS011;67666;55.862;49.094;2023-03-01T11:18:44;1.08;;;0.30;;
78055;SDS011;67666;55.862;49.094;2023-03-01T11:23:50;2.83;;;0.60;;
78055;SDS011;67666;55.862;49.094;2023-03-01T11:26:16;3.10;;;0.90;;
78055;SDS011;67666;55.862;49.094;2023-03-01T11:28:44;1.67;;;0.45;;
78055;SDS011;67666;55.862;49.094;2023-03-01T11:31:18;0.82;;;0.40;;
78055;SDS011;67666;55.862;49.094;2023-03-01T11:33:57;1.58;;;0.40;;
78055;SDS011;67666;55.862;49.094;2023-03-01T11:40:09;1.00;;;0.35;;
78055;SDS011;67666;55.862;49.094;2023-03-01T11:42:27;2.03;;;0.77;;
78055;SDS011;67666;55.862;49.094;2023-03-01T11:45:15;1.83;;;0.50;;
78055;SDS011;67666;55.862;49.094;2023-03-01T11:50:50;3.13;;;0.77;;
78055;SDS011;67666;55.862;49.094;2023-03-01T11:56:09;1.17;;;0.50;;
78055;SDS011;67666;55.862;49.094;2023-03-01T11:59:00;2.05;;;0.60;;
78055;SDS011;67666;55.862;49.094;2023-03-01T12:07:27;2.67;;;0.63;;
78055;SDS011;67666;55.862;49.094;2023-03-01T12:21:35;1.67;;;0.50;;
78055;SDS011;67666;55.862;49.094;2023-03-01T12:34:47;0.85;;;0.35;;
78055;SDS011;67666;55.862;49.094;2023-03-01T12:41:33;0.70;;;0.40;;
78055;SDS011;67666;55.862;49.094;2023-03-01T12:43:36;1.75;;;0.50;;
78055;SDS011;67666;55.862;49.094;2023-03-01T12:46:25;1.02;;;0.30;;
78055;SDS011;67666;55.862;49.094;2023-03-01T12:49:13;1.38;;;0.40;;
78055;SDS011;67666;55.862;49.094;2023-03-01T12:51:44;2.03;;;0.57;;
78055;SDS011;67666;55.862;49.094;2023-03-01T12:54:22;3.15;;;0.47;;
78055;SDS011;67666;55.862;49.094;2023-03-01T12:56:53;0.90;;;0.40;;
78055;SDS011;67666;55.862;49.094;2023-03-01T12:59:47;1.27;;;0.30;;
78055;SDS011;67666;55.862;49.094;2023-03-01T13:02:38;1.15;;;0.35;;
78055;SDS011;67666;55.862;49.094;2023-03-01T13:05:23;1.35;;;0.57;;
78055;SDS011;67666;55.862;49.094;2023-03-01T13:07:58;0.73;;;0.30;;
78055;SDS011;67666;55.862;49.094;2023-03-01T13:10:51;1.20;;;0.50;;
78055;SDS011;67666;55.862;49.094;2023-03-01T13:13:26;2.42;;;0.60;;
78055;SDS011;67666;55.862;49.094;2023-03-01T13:15:54;2.53;;;0.45;;
78055;SDS011;67666;55.862;49.094;2023-03-01T13:20:49;3.83;;;0.52;;
78055;SDS011;67666;55.862;49.094;2023-03-01T13:31:11;1.88;;;0.40;;
78055;SDS011;67666;55.862;49.094;2023-03-01T13:33:59;1.38;;;0.52;;
78055;SDS011;67666;55.862;49.094;2023-03-01T13:38:56;1.60;;;0.40;;
78055;SDS011;67666;55.862;49.094;2023-03-01T13:41:47;1.27;;;0.43;;
78055;SDS011;67666;55.862;49.094;2023-03-01T13:44:20;1.88;;;0.30;;
78055;SDS011;67666;55.862;49.094;2023-03-01T13:46:50;0.90;;;0.30;;
78055;SDS011;67666;55.862;49.094;2023-03-01T13:52:28;1.48;;;0.47;;
78055;SDS011;67666;55.862;49.094;2023-03-01T13:55:06;1.73;;;0.25;;
78055;SDS011;67666;55.862;49.094;2023-03-01T13:57:40;0.85;;;0.35;;
78055;SDS011;67666;55.862;49.094;2023-03-01T14:00:32;1.15;;;0.32;;
78055;SDS011;67666;55.862;49.094;2023-03-01T14:03:11;1.08;;;0.40;;
78055;SDS011;67666;55.862;49.094;2023-03-01T14:05:43;0.65;;;0.22;;
78055;SDS011;67666;55.862;49.094;2023-03-01T14:08:24;0.90;;;0.40;;
78055;SDS011;67666;55.862;49.094;2023-03-01T14:14:01;1.65;;;0.40;;
78055;SDS011;67666;55.862;49.094;2023-03-01T14:16:34;1.15;;;0.63;;
78055;SDS011;67666;55.862;49.094;2023-03-01T14:21:42;2.22;;;0.40;;
78055;SDS011;67666;55.862;49.094;2023-03-01T14:26:46;0.63;;;0.30;;
78055;SDS011;67666;55.862;49.094;2023-03-01T14:32:31;0.70;;;0.43;;
78055;SDS011;67666;55.862;49.094;2023-03-01T14:34:58;1.25;;;0.47;;
78055;SDS011;67666;55.862;49.094;2023-03-01T14:37:26;1.20;;;0.40;;
78055;SDS011;67666;55.862;49.094;2023-03-01T14:39:55;1.20;;;0.50;;
78055;SDS011;67666;55.862;49.094;2023-03-01T14:42:23;0.90;;;0.50;;
78055;SDS011;67666;55.862;49.094;2023-03-01T14:44:53;0.85;;;0.40;;
78055;SDS011;67666;55.862;49.094;2023-03-01T14:47:40;2.00;;;0.70;;
78055;SDS011;67666;55.862;49.094;2023-03-01T14:50:15;1.02;;;0.30;;
78055;SDS011;67666;55.862;49.094;2023-03-01T14:52:50;0.88;;;0.40;;
78055;SDS011;67666;55.862;49.094;2023-03-01T14:55:41;1.48;;;0.90;;
78055;SDS011;67666;55.862;49.094;2023-03-01T14:58:15;0.75;;;0.35;;
78055;SDS011;67666;55.862;49.094;2023-03-01T15:00:56;1.40;;;0.60;;
78055;SDS011;67666;55.862;49.094;2023-03-01T15:03:32;1.50;;;0.50;;
78055;SDS011;67666;55.862;49.094;2023-03-01T15:06:05;2.38;;;0.57;;
78055;SDS011;67666;55.862;49.094;2023-03-01T15:08:33;2.10;;;0.50;;
78055;SDS011;67666;55.862;49.094;2023-03-01T15:13:43;0.90;;;0.50;;
78055;SDS011;67666;55.862;49.094;2023-03-01T15:18:46;1.90;;;0.50;;
78055;SDS011;67666;55.862;49.094;2023-03-01T15:21:18;3.72;;;0.52;;
78055;SDS011;67666;55.862;49.094;2023-03-01T15:23:54;2.65;;;0.50;;
78055;SDS011;67666;55.862;49.094;2023-03-01T15:26:25;1.02;;;0.40;;
78055;SDS011;67666;55.862;49.094;2023-03-01T15:28:57;2.63;;;0.70;;
78055;SDS011;67666;55.862;49.094;2023-03-01T15:31:37;3.42;;;0.50;;
78055;SDS011;67666;55.862;49.094;2023-03-01T15:40:19;3.92;;;1.60;;
78055;SDS011;67666;55.862;49.094;2023-03-01T15:43:00;3.60;;;1.42;;
78055;SDS011;67666;55.862;49.094;2023-03-01T15:45:29;3.50;;;1.65;;
78055;SDS011;67666;55.862;49.094;2023-03-01T15:47:57;2.67;;;1.50;;
78055;SDS011;67666;55.862;49.094;2023-03-01T15:50:28;3.42;;;1.50;;
78055;SDS011;67666;55.862;49.094;2023-03-01T15:52:58;3.97;;;1.80;;
78055;SDS011;67666;55.862;49.094;2023-03-01T15:55:30;4.25;;;1.80;;
78055;SDS011;67666;55.862;49.094;2023-03-01T16:00:26;3.08;;;2.20;;
78055;SDS011;67666;55.862;49.094;2023-03-01T16:02:53;3.97;;;1.92;;
78055;SDS011;67666;55.862;49.094;2023-03-01T16:05:22;4.45;;;1.75;;
78055;SDS011;67666;55.862;49.094;2023-03-01T16:07:51;3.22;;;1.52;;
78055;SDS011;67666;55.862;49.094;2023-03-01T16:10:18;4.70;;;1.60;;
78055;SDS011;67666;55.862;49.094;2023-03-01T16:12:44;2.47;;;1.50;;
78055;SDS011;67666;55.862;49.094;2023-03-01T16:15:23;3.13;;;1.75;;
78055;SDS011;67666;55.862;49.094;2023-03-01T16:17:51;4.40;;;2.22;;
78055;SDS011;67666;55.862;49.094;2023-03-01T16:20:24;5.18;;;3.15;;
78055;SDS011;67666;55.862;49.094;2023-03-01T16:22:50;4.90;;;2.60;;
78055;SDS011;67666;55.862;49.094;2023-03-01T16:25:18;4.13;;;2.55;;
78055;SDS011;67666;55.862;49.094;2023-03-01T16:27:47;4.32;;;2.72;;
78055;SDS011;67666;55.862;49.094;2023-03-01T16:30:15;3.97;;;2.03;;
78055;SDS011;67666;55.862;49.094;2023-03-01T16:32:44;3.63;;;1.88;;
78055;SDS011;67666;55.862;49.094;2023-03-01T16:35:12;4.18;;;1.80;;
78055;SDS011;67666;55.862;49.094;2023-03-01T16:37:40;4.13;;;1.90;;
78055;SDS011;67666;55.862;49.094;2023-03-01T16:40:11;3.60;;;1.85;;
78055;SDS011;67666;55.862;49.094;2023-03-01T16:42:44;3.67;;;1.63;;
78055;SDS011;67666;55.862;49.094;2023-03-01T16:45:11;2.60;;;1.88;;
78055;SDS011;67666;55.862;49.094;2023-03-01T16:47:37;4.03;;;1.80;;
78055;SDS011;67666;55.862;49.094;2023-03-01T16:50:03;4.07;;;1.73;;
78055;SDS011;67666;55.862;49.094;2023-03-01T16:52:30;2.53;;;1.40;;
78055;SDS011;67666;55.862;49.094;2023-03-01T16:54:56;2.70;;;1.80;;
78055;SDS011;67666;55.862;49.094;2023-03-01T16:57:23;3.10;;;1.27;;
78055;SDS011;67666;55.862;49.094;2023-03-01T16:59:52;3.17;;;1.55;;
78055;SDS011;67666;55.862;49.094;2023-03-01T17:02:20;4.30;;;1.65;;
78055;SDS011;67666;55.862;49.094;2023-03-01T17:04:54;2.67;;;1.27;;
78055;SDS011;67666;55.862;49.094;2023-03-01T17:07:21;2.70;;;1.40;;
78055;SDS011;67666;55.862;49.094;2023-03-01T17:09:47;3.33;;;1.42;;
78055;SDS011;67666;55.862;49.094;2023-03-01T17:12:14;2.13;;;1.25;;
78055;SDS011;67666;55.862;49.094;2023-03-01T17:14:41;3.20;;;1.27;;
78055;SDS011;67666;55.862;49.094;2023-03-01T17:19:34;2.28;;;1.33;;
78055;SDS011;67666;55.862;49.094;2023-03-01T17:22:05;3.75;;;1.15;;
78055;SDS011;67666;55.862;49.094;2023-03-01T17:24:39;1.65;;;0.85;;
78055;SDS011;67666;55.862;49.094;2023-03-01T17:27:06;2.25;;;1.25;;
78055;SDS011;67666;55.862;49.094;2023-03-01T17:29:33;2.85;;;1.20;;
78055;SDS011;67666;55.862;49.094;2023-03-01T17:32:00;1.85;;;1.00;;
78055;SDS011;67666;55.862;49.094;2023-03-01T17:34:28;2.10;;;1.25;;